Time,TemperatureF,DewpointF,PressureIn,WindDirection,WindDirectionDegrees,WindSpeedMPH,WindSpeedGustMPH,Humidity,HourlyPrecipIn,Conditions,Clouds,dailyrainin,SoftwareType,DateUTC
2014-03-20 00:42:00,52.0,38.0,30.18,SW,217,0.0,1.0,59,0.00,,,0.00,,2014-03-20 05:42:00,
2014-03-20 00:53:00,50.0,38.0,30.19,SW,235,1.0,2.0,63,0.00,,,0.00,,2014-03-20 05:53:00,
2014-03-20 01:22:00,50.0,38.0,30.19,SW,227,2.0,4.0,63,0.00,,,0.00,,2014-03-20 06:22:00,
2014-03-20 01:42:00,50.0,39.0,30.19,SW,231,2.0,4.0,65,0.00,,,0.00,,2014-03-20 06:42:00,
2014-03-20 01:52:00,49.0,38.0,30.19,SW,229,2.0,3.0,66,0.00,,,0.00,,2014-03-20 06:52:00,
2014-03-20 02:22:00,48.0,38.0,30.19,SW,232,1.0,2.0,68,0.00,,,0.00,,2014-03-20 07:22:00,
2014-03-20 02:42:00,48.0,37.0,30.19,SW,226,3.0,4.0,66,0.00,,,0.00,,2014-03-20 07:42:00,
2014-03-20 02:52:00,48.0,37.0,30.19,SW,225,2.0,2.0,66,0.00,,,0.00,,2014-03-20 07:52:00,
2014-03-20 03:21:00,47.0,36.0,30.19,SW,233,2.0,4.0,66,0.00,,,0.00,,2014-03-20 08:21:00,
2014-03-20 03:42:00,47.0,36.0,30.19,SW,228,2.0,4.0,65,0.00,,,0.00,,2014-03-20 08:42:00,
2014-03-20 03:52:00,47.0,35.0,30.19,SW,228,3.0,4.0,64,0.00,,,0.00,,2014-03-20 08:52:00,
2014-03-20 04:21:00,46.0,34.0,30.18,WSW,250,1.0,3.0,62,0.00,,,0.00,,2014-03-20 09:21:00,
2014-03-20 04:43:00,45.0,34.0,30.18,WSW,255,0.0,1.0,65,0.00,,,0.00,,2014-03-20 09:43:00,
2014-03-20 04:54:00,45.0,34.0,30.18,WSW,253,0.0,1.0,66,0.00,,,0.00,,2014-03-20 09:54:00,
2014-03-20 05:13:00,44.0,34.0,30.18,WSW,253,1.0,2.0,67,0.00,,,0.00,,2014-03-20 10:13:00,
2014-03-20 05:23:00,44.0,34.0,30.18,WSW,255,0.0,1.0,67,0.00,,,0.00,,2014-03-20 10:23:00,
2014-03-20 05:53:00,44.0,34.0,30.18,SW,225,2.0,2.0,68,0.00,,,0.00,,2014-03-20 10:53:00,
2014-03-20 06:22:00,43.0,35.0,30.17,SW,225,0.0,1.0,72,0.00,,,0.00,,2014-03-20 11:22:00,
2014-03-20 06:43:00,42.0,35.0,30.18,SW,225,0.0,0.0,75,0.00,,,0.00,,2014-03-20 11:43:00,
2014-03-20 06:52:00,41.0,35.0,30.18,SW,225,0.0,1.0,80,0.00,,,0.00,,2014-03-20 11:52:00,
2014-03-20 08:52:00,46.0,37.0,30.19,SSW,210,0.0,0.0,70,0.00,,,0.00,,2014-03-20 13:52:00,
2014-03-20 09:42:00,52.0,39.0,30.20,SW,215,0.0,0.0,60,0.00,,,0.00,,2014-03-20 14:42:00,
2014-03-20 09:52:00,53.0,39.0,30.20,NNE,26,1.0,3.0,58,0.00,,,0.00,,2014-03-20 14:52:00,
2014-03-20 10:22:00,53.0,37.0,30.21,NE,46,3.0,5.0,54,0.00,,,0.00,,2014-03-20 15:22:00,
2014-03-20 10:43:00,54.0,37.0,30.21,East,84,2.0,5.0,53,0.00,,,0.00,,2014-03-20 15:43:00,
2014-03-20 10:53:00,55.0,36.0,30.21,NE,51,5.0,7.0,49,0.00,,,0.00,,2014-03-20 15:53:00,
2014-03-20 11:23:00,58.0,36.0,30.21,ENE,59,5.0,7.0,44,0.00,,,0.00,,2014-03-20 16:23:00,
2014-03-20 11:43:00,58.0,34.0,30.20,NE,50,7.0,10.0,40,0.00,,,0.00,,2014-03-20 16:43:00,
2014-03-20 11:53:00,59.0,32.0,30.20,NE,41,8.0,11.0,36,0.00,,,0.00,,2014-03-20 16:53:00,
2014-03-20 12:23:00,61.0,33.0,30.19,East,84,6.0,10.0,35,0.00,,,0.00,,2014-03-20 17:23:00,
2014-03-20 12:44:00,62.0,33.0,30.19,East,98,6.0,10.0,34,0.00,,,0.00,,2014-03-20 17:44:00,
2014-03-20 12:52:00,63.0,33.0,30.18,East,82,6.0,8.0,32,0.00,,,0.00,,2014-03-20 17:52:00,
2014-03-20 13:22:00,64.0,34.0,30.16,NE,52,5.0,12.0,32,0.00,,,0.00,,2014-03-20 18:22:00,
2014-03-20 13:42:00,65.0,33.0,30.16,ESE,117,2.0,6.0,30,0.00,,,0.00,,2014-03-20 18:42:00,
2014-03-20 13:52:00,65.0,32.0,30.15,SSW,207,3.0,9.0,29,0.00,,,0.00,,2014-03-20 18:52:00,
2014-03-20 14:22:00,66.0,31.0,30.12,SE,145,3.0,9.0,27,0.00,,,0.00,,2014-03-20 19:22:00,
2014-03-20 14:42:00,67.0,33.0,30.11,SSE,148,1.0,12.0,28,0.00,,,0.00,,2014-03-20 19:42:00,
2014-03-20 14:52:00,68.0,33.0,30.10,ESE,103,5.0,9.0,27,0.00,,,0.00,,2014-03-20 19:52:00,
2014-03-20 15:11:00,67.0,33.0,30.09,SSE,148,4.0,12.0,28,0.00,,,0.00,,2014-03-20 20:11:00,
2014-03-20 15:22:00,68.0,30.0,30.08,ENE,75,6.0,13.0,24,0.00,,,0.00,,2014-03-20 20:22:00,
2014-03-20 15:42:00,69.0,31.0,30.07,East,96,5.0,12.0,24,0.00,,,0.00,,2014-03-20 20:42:00,
2014-03-20 15:52:00,69.0,31.0,30.07,ENE,69,4.0,11.0,24,0.00,,,0.00,,2014-03-20 20:52:00,
2014-03-20 16:22:00,70.0,30.0,30.04,ESE,107,9.0,15.0,23,0.00,,,0.00,,2014-03-20 21:22:00,
2014-03-20 16:43:00,70.0,29.0,30.03,ESE,107,10.0,13.0,22,0.00,,,0.00,,2014-03-20 21:43:00,
2014-03-20 16:53:00,70.0,29.0,30.03,East,79,9.0,11.0,22,0.00,,,0.00,,2014-03-20 21:53:00,
2014-03-20 17:30:00,71.0,30.0,30.02,East,86,10.0,13.0,22,0.00,,,0.00,,2014-03-20 22:30:00,
2014-03-20 17:50:00,-999.0,-99.9,30.01,ENE,72,7.0,15.0,22,0.00,,,0.00,,2014-03-20 22:50:00,
2014-03-20 18:00:00,71.0,30.0,30.00,NE,37,9.0,14.0,22,0.00,,,0.00,,2014-03-20 23:00:00,
2014-03-20 18:13:00,71.0,30.0,29.99,ENE,76,9.0,13.0,22,0.00,,,0.00,,2014-03-20 23:13:00,
2014-03-20 18:23:00,71.0,30.0,29.99,ENE,58,8.0,14.0,22,0.00,,,0.00,,2014-03-20 23:23:00,
2014-03-20 18:52:00,71.0,30.0,29.98,ESE,104,10.0,13.0,22,0.00,,,0.00,,2014-03-20 23:52:00,
2014-03-20 19:11:00,71.0,29.0,29.98,ESE,118,9.0,12.0,21,0.00,,,0.00,,2014-03-21 00:11:00,
2014-03-20 19:22:00,71.0,30.0,29.98,SE,124,10.0,13.0,22,0.00,,,0.00,,2014-03-21 00:22:00,
2014-03-20 19:42:00,70.0,29.0,29.98,East,85,9.0,11.0,22,0.00,,,0.00,,2014-03-21 00:42:00,
2014-03-20 19:52:00,69.0,30.0,29.98,East,94,7.0,10.0,23,0.00,,,0.00,,2014-03-21 00:52:00,
2014-03-20 20:11:00,69.0,31.0,29.98,East,83,8.0,9.0,24,0.00,,,0.00,,2014-03-21 01:11:00,
2014-03-20 20:21:00,69.0,31.0,29.98,East,83,8.0,9.0,24,0.00,,,0.00,,2014-03-21 01:21:00,
2014-03-20 20:42:00,67.0,32.0,29.97,East,81,5.0,8.0,27,0.00,,,0.00,,2014-03-21 01:42:00,
2014-03-20 20:53:00,67.0,33.0,29.96,NE,53,5.0,7.0,28,0.00,,,0.00,,2014-03-21 01:53:00,
2014-03-20 21:02:00,67.0,33.0,29.96,NE,53,5.0,7.0,28,0.00,,,0.00,,2014-03-21 02:02:00,
2014-03-20 21:21:00,65.0,34.0,29.97,ENE,71,5.0,9.0,31,0.00,,,0.00,,2014-03-21 02:21:00,
2014-03-20 21:42:00,64.0,34.0,29.97,NE,36,6.0,9.0,32,0.00,,,0.00,,2014-03-21 02:42:00,
2014-03-20 21:52:00,64.0,34.0,29.97,ENE,70,6.0,9.0,32,0.00,,,0.00,,2014-03-21 02:52:00,
2014-03-20 22:22:00,63.0,33.0,29.97,ENE,64,6.0,11.0,33,0.00,,,0.00,,2014-03-21 03:22:00,
2014-03-20 22:43:00,62.0,33.0,29.97,ENE,68,7.0,10.0,34,0.00,,,0.00,,2014-03-21 03:43:00,
2014-03-20 22:54:00,62.0,34.0,29.97,ENE,74,7.0,9.0,35,0.00,,,0.00,,2014-03-21 03:54:00,
2014-03-20 23:23:00,61.0,34.0,29.98,NE,40,6.0,11.0,36,0.00,,,0.00,,2014-03-21 04:23:00,
2014-03-20 23:43:00,61.0,34.0,29.98,ENE,62,7.0,10.0,36,0.00,,,0.00,,2014-03-21 04:43:00,
2014-03-20 23:54:00,60.0,33.0,29.97,ENE,58,5.0,8.0,36,0.00,,,0.00,,2014-03-21 04:54:00,